createdAt,value
2018-02-27T00:00:38.478Z,64.30
2018-02-27T00:03:05.896Z,64.35
2018-02-27T00:05:33.301Z,64.21
2018-02-27T00:08:00.708Z,63.91
2018-02-27T00:10:28.945Z,64.00
2018-02-27T00:12:56.349Z,63.65
2018-02-27T00:15:23.877Z,63.96
2018-02-27T00:17:51.279Z,63.73
2018-02-27T00:20:18.700Z,63.43
2018-02-27T00:22:46.108Z,63.37
2018-02-27T00:25:13.536Z,63.77
2018-02-27T00:27:40.941Z,63.59
2018-02-27T00:30:08.363Z,63.84
2018-02-27T00:32:36.095Z,63.88
2018-02-27T00:35:03.500Z,63.94
2018-02-27T00:37:30.916Z,64.28
2018-02-27T00:39:58.332Z,64.23
2018-02-27T00:42:25.740Z,64.78
2018-02-27T00:44:53.167Z,64.53
2018-02-27T00:47:20.578Z,64.59
2018-02-27T00:49:47.984Z,64.34
2018-02-27T00:52:15.392Z,64.60
2018-02-27T00:54:42.803Z,64.64
2018-02-27T00:57:10.222Z,64.70
2018-02-27T00:59:37.632Z,64.38
2018-02-27T01:02:05.057Z,64.55
2018-02-27T01:04:32.457Z,64.65
2018-02-27T01:06:59.873Z,64.59
2018-02-27T01:09:27.271Z,64.58
2018-02-27T01:11:55.284Z,64.41
2018-02-27T01:14:22.687Z,64.36
2018-02-27T01:16:50.114Z,64.95
2018-02-27T01:19:17.520Z,64.57
2018-02-27T01:21:44.927Z,64.97
2018-02-27T01:24:12.341Z,65.03
2018-02-27T01:26:39.773Z,64.92
2018-02-27T01:29:07.188Z,65.06
2018-02-27T01:31:34.608Z,65.23
2018-02-27T01:34:02.014Z,65.12
2018-02-27T01:36:29.421Z,65.02
2018-02-27T01:38:56.834Z,65.00
2018-02-27T01:41:24.272Z,65.11
2018-02-27T01:43:51.688Z,65.09
2018-02-27T01:46:19.094Z,65.25
2018-02-27T01:48:46.512Z,65.48
2018-02-27T01:51:14.604Z,65.46
2018-02-27T01:53:42.013Z,65.45
2018-02-27T01:56:09.429Z,66.13
2018-02-27T01:58:36.847Z,65.57
2018-02-27T02:01:04.257Z,66.29
2018-02-27T02:03:31.697Z,66.52
2018-02-27T02:05:59.110Z,66.35
2018-02-27T02:08:26.929Z,66.02
2018-02-27T02:10:54.328Z,65.76
2018-02-27T02:13:21.742Z,65.66
2018-02-27T02:15:49.149Z,65.58
2018-02-27T02:18:16.581Z,65.79
2018-02-27T02:20:43.985Z,65.72
2018-02-27T02:23:11.412Z,65.97
2018-02-27T02:25:38.827Z,65.91
2018-02-27T02:28:06.246Z,66.31
2018-02-27T02:30:33.659Z,66.79
2018-02-27T02:33:01.080Z,66.52
2018-02-27T02:35:28.486Z,66.84
2018-02-27T02:37:55.900Z,66.91
2018-02-27T02:40:23.307Z,66.91
2018-02-27T02:42:50.742Z,67.21
2018-02-27T02:45:18.145Z,67.62
2018-02-27T02:47:45.557Z,67.47
2018-02-27T02:50:12.981Z,67.27
2018-02-27T02:52:40.381Z,66.67
2018-02-27T02:55:07.799Z,66.54
2018-02-27T02:57:35.210Z,66.06
2018-02-27T03:00:02.632Z,65.98
2018-02-27T03:02:30.038Z,65.90
2018-02-27T03:04:57.465Z,66.19
2018-02-27T03:07:24.870Z,65.95
2018-02-27T03:09:52.289Z,65.98
2018-02-27T03:12:19.693Z,66.19
2018-02-27T03:14:47.113Z,66.09
2018-02-27T03:17:14.524Z,66.05
2018-02-27T03:19:42.044Z,65.53
2018-02-27T03:22:09.457Z,65.58
2018-02-27T03:24:36.876Z,65.70
2018-02-27T03:27:04.294Z,65.37
2018-02-27T03:29:31.713Z,64.67
2018-02-27T03:31:59.357Z,64.72
2018-02-27T03:34:26.781Z,65.68
2018-02-27T03:36:54.205Z,65.81
2018-02-27T03:39:21.625Z,65.43
2018-02-27T03:41:49.041Z,65.37
2018-02-27T03:44:16.448Z,64.44
2018-02-27T03:46:43.862Z,64.62
2018-02-27T03:49:11.272Z,64.24
2018-02-27T03:51:38.689Z,63.87
2018-02-27T03:54:06.109Z,63.49
2018-02-27T03:56:33.524Z,63.83
2018-02-27T03:59:00.936Z,62.98
2018-02-27T04:01:28.438Z,62.93
2018-02-27T04:03:55.840Z,63.11
2018-02-27T04:06:23.256Z,63.32
2018-02-27T04:08:50.675Z,63.27
2018-02-27T04:11:18.097Z,63.14
2018-02-27T04:13:45.496Z,62.61
2018-02-27T04:16:12.918Z,62.99
2018-02-27T04:18:40.322Z,62.97
2018-02-27T04:21:07.743Z,63.17
2018-02-27T04:23:35.148Z,63.38
2018-02-27T04:26:02.569Z,63.15
2018-02-27T04:28:30.681Z,63.97
2018-02-27T04:30:58.097Z,63.53
2018-02-27T04:33:25.500Z,64.08
2018-02-27T04:35:52.917Z,64.47
2018-02-27T04:38:20.336Z,64.33
2018-02-27T04:40:47.750Z,64.08
2018-02-27T04:43:15.171Z,63.95
2018-02-27T04:45:42.586Z,64.18
2018-02-27T04:48:09.993Z,64.89
2018-02-27T04:50:37.434Z,64.78
2018-02-27T04:53:04.841Z,64.69
2018-02-27T04:55:32.256Z,64.52
2018-02-27T04:57:59.657Z,64.65
2018-02-27T05:00:27.085Z,64.37
2018-02-27T05:02:54.504Z,65.41
2018-02-27T05:05:21.903Z,64.81
2018-02-27T05:07:49.326Z,65.17
2018-02-27T05:10:17.505Z,65.11
2018-02-27T05:12:44.926Z,65.12
2018-02-27T05:15:12.342Z,65.54
2018-02-27T05:17:39.760Z,65.64
2018-02-27T05:20:07.173Z,66.18
2018-02-27T05:22:34.592Z,66.86
2018-02-27T05:25:02.500Z,67.37
2018-02-27T05:27:30.550Z,67.59
2018-02-27T05:29:57.957Z,67.77
2018-02-27T05:32:25.370Z,68.05
2018-02-27T05:34:52.789Z,68.54
2018-02-27T05:37:20.210Z,68.68
2018-02-27T05:39:47.626Z,68.78
2018-02-27T05:42:15.886Z,68.96
2018-02-27T05:44:43.300Z,69.94
2018-02-27T05:47:10.721Z,70.23
2018-02-27T05:49:38.139Z,70.42
2018-02-27T05:52:05.552Z,71.14
2018-02-27T05:54:32.983Z,71.13
2018-02-27T05:57:00.392Z,70.59
2018-02-27T05:59:27.810Z,70.59
2018-02-27T06:01:55.229Z,70.28
2018-02-27T06:04:22.701Z,69.96
2018-02-27T06:06:50.134Z,69.96
2018-02-27T06:09:17.541Z,69.47
2018-02-27T06:11:44.957Z,69.18
2018-02-27T06:14:12.368Z,69.34
2018-02-27T06:16:39.800Z,69.44
2018-02-27T06:19:07.213Z,69.22
2018-02-27T06:21:35.209Z,69.40
2018-02-27T06:24:02.613Z,69.69
2018-02-27T06:26:30.033Z,69.58
2018-02-27T06:28:57.530Z,69.28
2018-02-27T06:31:25.006Z,69.09
2018-02-27T06:33:52.392Z,69.45
2018-02-27T06:36:19.796Z,69.45
2018-02-27T06:38:47.224Z,69.80
2018-02-27T06:41:14.641Z,69.47
2018-02-27T06:43:42.066Z,69.29
2018-02-27T06:46:09.468Z,69.19
2018-02-27T06:48:36.887Z,69.21
2018-02-27T06:51:04.292Z,69.00
2018-02-27T06:53:31.714Z,67.67
2018-02-27T06:55:59.140Z,67.61
2018-02-27T06:58:26.549Z,66.79
2018-02-27T07:00:53.961Z,66.52
2018-02-27T07:03:21.392Z,65.79
2018-02-27T07:05:48.808Z,65.54
2018-02-27T07:08:16.230Z,65.52
2018-02-27T07:10:43.645Z,64.91
2018-02-27T07:13:11.049Z,64.62
2018-02-27T07:15:39.298Z,64.52
2018-02-27T07:18:07.244Z,64.51
2018-02-27T07:20:34.646Z,64.16
2018-02-27T07:23:02.133Z,64.44
2018-02-27T07:25:29.539Z,64.05
2018-02-27T07:27:56.947Z,63.79
2018-02-27T07:30:24.358Z,63.64
2018-02-27T07:32:51.784Z,63.69
2018-02-27T07:35:20.263Z,63.17
2018-02-27T07:37:47.652Z,63.13
2018-02-27T07:40:15.066Z,62.94
2018-02-27T07:42:42.484Z,62.81
2018-02-27T07:45:09.897Z,62.94
2018-02-27T07:47:37.323Z,62.35
2018-02-27T07:50:04.723Z,61.64
2018-02-27T07:52:32.141Z,61.96
2018-02-27T07:54:59.547Z,61.67
2018-02-27T07:57:26.974Z,61.16
2018-02-27T07:59:54.382Z,61.16
2018-02-27T08:02:21.806Z,61.53
2018-02-27T08:04:49.216Z,60.93
2018-02-27T08:07:16.634Z,60.78
2018-02-27T08:09:44.056Z,60.46
2018-02-27T08:12:11.508Z,60.82
2018-02-27T08:14:39.549Z,60.50
2018-02-27T08:17:07.412Z,60.00
2018-02-27T08:19:34.829Z,60.09
2018-02-27T08:22:02.256Z,59.99
2018-02-27T08:24:29.669Z,59.84
2018-02-27T08:26:57.085Z,59.40
2018-02-27T08:29:24.493Z,59.29
2018-02-27T08:31:51.900Z,60.16
2018-02-27T08:34:19.317Z,59.60
2018-02-27T08:36:46.720Z,59.58
2018-02-27T08:39:14.149Z,60.11
2018-02-27T08:41:41.564Z,59.66
2018-02-27T08:44:08.988Z,59.11
2018-02-27T08:46:36.394Z,59.75
2018-02-27T08:49:03.951Z,60.07
2018-02-27T08:51:31.360Z,59.79
2018-02-27T08:53:58.784Z,59.42
2018-02-27T08:56:26.199Z,58.99
2018-02-27T08:58:53.630Z,59.24
2018-02-27T09:01:21.044Z,58.77
2018-02-27T09:03:48.460Z,58.68
2018-02-27T09:06:15.867Z,58.73
2018-02-27T09:08:43.284Z,58.46
2018-02-27T09:11:10.691Z,58.78
2018-02-27T09:13:38.113Z,58.62
2018-02-27T09:16:05.539Z,57.87
2018-02-27T09:18:33.935Z,57.65
2018-02-27T09:21:01.356Z,57.62
2018-02-27T09:23:28.770Z,57.74
2018-02-27T09:25:56.178Z,57.60
2018-02-27T09:28:23.596Z,57.71
2018-02-27T09:30:52.098Z,57.62
2018-02-27T09:33:19.507Z,57.36
2018-02-27T09:35:48.685Z,56.81
2018-02-27T09:38:16.065Z,56.58
2018-02-27T09:40:43.657Z,57.23
2018-02-27T09:43:11.044Z,56.94
2018-02-27T09:45:38.881Z,56.25
2018-02-27T09:48:06.289Z,56.42
2018-02-27T09:50:33.714Z,56.50
2018-02-27T09:53:01.132Z,55.61
2018-02-27T09:55:28.564Z,56.63
2018-02-27T09:57:55.984Z,56.29
2018-02-27T10:00:23.405Z,55.65
2018-02-27T10:02:50.818Z,55.25
2018-02-27T10:05:18.953Z,55.02
2018-02-27T10:07:46.369Z,55.25
2018-02-27T10:10:13.869Z,55.69
2018-02-27T10:12:41.282Z,54.44
2018-02-27T10:15:09.326Z,55.05
2018-02-27T10:17:36.748Z,54.90
2018-02-27T10:20:04.171Z,54.47
2018-02-27T10:22:31.581Z,52.98
2018-02-27T10:24:59.003Z,53.91
2018-02-27T10:27:26.484Z,53.34
2018-02-27T10:29:53.834Z,53.48
2018-02-27T10:32:21.236Z,53.95
2018-02-27T10:34:48.669Z,54.03
2018-02-27T10:37:16.097Z,53.56
2018-02-27T10:39:43.516Z,52.43
2018-02-27T10:42:10.925Z,52.18
2018-02-27T10:44:38.344Z,52.38
2018-02-27T10:47:05.777Z,52.91
2018-02-27T10:49:33.212Z,52.30
2018-02-27T10:52:00.618Z,52.12
2018-02-27T10:54:28.050Z,52.16
2018-02-27T10:56:55.445Z,52.17
2018-02-27T10:59:22.921Z,51.41
2018-02-27T11:02:00.188Z,51.35
2018-02-27T11:04:27.619Z,51.27
2018-02-27T11:06:55.029Z,51.58
2018-02-27T11:09:22.445Z,51.60
2018-02-27T11:11:50.803Z,51.19
2018-02-27T11:14:18.910Z,51.21
2018-02-27T11:16:46.329Z,51.32
2018-02-27T11:19:13.741Z,51.75
2018-02-27T11:21:41.152Z,50.82
2018-02-27T11:24:08.565Z,49.85
2018-02-27T11:26:35.986Z,49.77
2018-02-27T11:29:03.414Z,49.75
2018-02-27T11:31:30.837Z,49.92
2018-02-27T11:33:58.559Z,50.00
2018-02-27T11:36:26.264Z,49.85
2018-02-27T11:38:53.678Z,50.23
2018-02-27T11:41:21.099Z,49.27
2018-02-27T11:43:49.125Z,49.00
2018-02-27T11:46:16.551Z,48.77
2018-02-27T11:48:43.968Z,48.25
2018-02-27T11:51:11.388Z,47.67
2018-02-27T11:53:38.806Z,48.35
2018-02-27T11:56:06.241Z,47.69
2018-02-27T11:58:33.661Z,47.54
2018-02-27T12:01:01.083Z,48.82
2018-02-27T12:03:28.501Z,49.33
2018-02-27T12:05:55.922Z,49.51
2018-02-27T12:08:23.327Z,49.71
2018-02-27T12:10:50.757Z,48.77
2018-02-27T12:13:18.166Z,48.33
2018-02-27T12:15:45.598Z,49.06
2018-02-27T12:18:13.007Z,49.12
2018-02-27T12:20:40.439Z,48.11
2018-02-27T12:23:07.855Z,48.15
2018-02-27T12:25:35.275Z,48.12
2018-02-27T12:28:02.707Z,48.19
2018-02-27T12:30:30.142Z,48.16
2018-02-27T12:32:57.554Z,48.54
2018-02-27T12:35:25.258Z,47.20
2018-02-27T12:37:52.681Z,47.00
2018-02-27T12:40:20.110Z,46.65
2018-02-27T12:42:47.529Z,46.59
2018-02-27T12:45:14.954Z,47.79
2018-02-27T12:47:42.368Z,47.63
2018-02-27T12:50:09.784Z,47.13
2018-02-27T12:52:38.792Z,47.22
2018-02-27T12:55:06.207Z,47.62
2018-02-27T12:57:33.636Z,46.93
2018-02-27T13:00:01.047Z,46.21
2018-02-27T13:02:28.462Z,45.81
2018-02-27T13:04:55.929Z,45.27
2018-02-27T13:07:23.300Z,45.21
2018-02-27T13:09:50.752Z,45.98
2018-02-27T13:12:18.173Z,46.21
2018-02-27T13:14:45.585Z,46.35
2018-02-27T13:17:13.002Z,45.98
2018-02-27T13:19:40.422Z,46.56
2018-02-27T13:22:07.831Z,46.15
2018-02-27T13:24:36.020Z,45.91
2018-02-27T13:27:03.455Z,45.73
2018-02-27T13:29:30.869Z,45.87
2018-02-27T13:31:58.293Z,45.99
2018-02-27T13:34:25.751Z,44.63
2018-02-27T13:36:53.988Z,45.03
2018-02-27T13:39:21.416Z,44.26
2018-02-27T13:41:48.851Z,44.88
2018-02-27T13:44:16.258Z,45.62
2018-02-27T13:46:43.901Z,45.51
2018-02-27T13:49:11.299Z,44.33
2018-02-27T13:51:38.713Z,44.51
2018-02-27T13:54:06.137Z,44.11
2018-02-27T13:56:33.544Z,43.79
2018-02-27T13:59:00.993Z,44.28
2018-02-27T14:01:28.409Z,43.96
2018-02-27T14:03:55.809Z,43.60
2018-02-27T14:06:24.233Z,43.83
2018-02-27T14:08:51.708Z,43.64
2018-02-27T14:11:19.085Z,44.02
2018-02-27T14:13:46.507Z,44.56
2018-02-27T14:16:13.925Z,44.86
2018-02-27T14:18:41.349Z,44.98
2018-02-27T14:21:08.756Z,44.54
2018-02-27T14:23:36.202Z,43.59
2018-02-27T14:26:03.616Z,42.74
2018-02-27T14:28:31.042Z,42.25
2018-02-27T14:30:58.448Z,42.75
2018-02-27T14:33:25.866Z,43.04
2018-02-27T14:35:53.282Z,43.57
2018-02-27T14:38:20.704Z,44.07
2018-02-27T14:40:48.114Z,43.13
2018-02-27T14:43:15.539Z,43.32
2018-02-27T14:45:45.229Z,43.06
2018-02-27T14:48:12.646Z,43.04
2018-02-27T14:50:40.686Z,42.85
2018-02-27T14:53:08.217Z,42.93
2018-02-27T14:55:35.689Z,42.56
2018-02-27T14:58:03.108Z,42.80
2018-02-27T15:00:30.517Z,42.65
2018-02-27T15:02:57.941Z,43.06
2018-02-27T15:05:25.684Z,42.64
2018-02-27T15:07:53.100Z,43.09
2018-02-27T15:10:20.508Z,43.25
2018-02-27T15:12:47.929Z,43.32
2018-02-27T15:15:15.343Z,43.42
2018-02-27T15:17:42.764Z,43.67
2018-02-27T15:20:10.412Z,44.03
2018-02-27T15:22:37.832Z,44.25
2018-02-27T15:25:05.249Z,44.13
2018-02-27T15:27:32.677Z,43.99
2018-02-27T15:30:00.088Z,43.77
2018-02-27T15:32:27.517Z,43.85
2018-02-27T15:34:54.921Z,44.23
2018-02-27T15:37:22.333Z,44.57
2018-02-27T15:39:50.465Z,44.35
2018-02-27T15:42:18.001Z,44.38
2018-02-27T15:44:46.063Z,43.73
2018-02-27T15:47:13.476Z,43.33
2018-02-27T15:49:40.891Z,43.91
2018-02-27T15:52:08.299Z,43.14
2018-02-27T15:54:35.726Z,43.42
2018-02-27T15:57:03.153Z,43.65
2018-02-27T15:59:30.566Z,43.25
2018-02-27T16:01:57.982Z,44.04
2018-02-27T16:04:25.402Z,43.24
2018-02-27T16:06:52.810Z,43.48
2018-02-27T16:09:20.239Z,43.92
2018-02-27T16:11:47.661Z,43.96
2018-02-27T16:14:15.065Z,44.07
2018-02-27T16:16:42.477Z,43.56
2018-02-27T16:19:09.901Z,43.82
2018-02-27T16:21:37.369Z,43.50
2018-02-27T16:24:04.737Z,43.19
2018-02-27T16:26:32.154Z,43.74
2018-02-27T16:28:59.576Z,43.64
2018-02-27T16:31:28.017Z,44.26
2018-02-27T16:33:55.442Z,44.63
2018-02-27T16:36:22.853Z,45.17
2018-02-27T16:38:50.267Z,45.25
2018-02-27T16:41:17.694Z,44.79
2018-02-27T16:43:45.115Z,45.09
2018-02-27T16:46:12.529Z,44.91
2018-02-27T16:48:39.951Z,45.11
2018-02-27T16:51:07.348Z,45.41
2018-02-27T16:53:34.769Z,46.30
2018-02-27T16:56:02.180Z,46.35
2018-02-27T16:58:29.592Z,45.74
2018-02-27T17:00:57.004Z,45.92
2018-02-27T17:03:24.428Z,46.61
2018-02-27T17:05:51.852Z,45.79
2018-02-27T17:08:19.260Z,47.76
2018-02-27T17:10:46.683Z,47.62
2018-02-27T17:13:14.080Z,49.16
2018-02-27T17:15:41.509Z,48.07
2018-02-27T17:18:08.913Z,48.37
2018-02-27T17:20:36.338Z,52.31
2018-02-27T17:23:03.748Z,49.21
2018-02-27T17:25:31.171Z,51.90
2018-02-27T17:27:58.575Z,49.28
2018-02-27T17:30:25.989Z,49.40
2018-02-27T17:32:53.404Z,49.92
2018-02-27T17:35:20.816Z,49.72
2018-02-27T17:37:48.221Z,51.38
2018-02-27T17:40:15.645Z,49.89
2018-02-27T17:42:43.058Z,53.97
2018-02-27T17:45:10.472Z,50.04
2018-02-27T17:47:37.898Z,51.01
2018-02-27T17:50:05.306Z,50.60
2018-02-27T17:52:32.731Z,51.40
2018-02-27T17:55:00.786Z,53.48
2018-02-27T17:57:29.929Z,52.85
2018-02-27T17:59:57.338Z,54.10
2018-02-27T18:02:24.765Z,54.04
2018-02-27T18:04:52.189Z,51.78
2018-02-27T18:07:19.610Z,52.82
2018-02-27T18:09:47.019Z,54.34
2018-02-27T18:12:14.434Z,51.55
2018-02-27T18:14:42.106Z,54.84
2018-02-27T18:17:09.509Z,53.09
2018-02-27T18:19:36.919Z,53.86
2018-02-27T18:22:06.306Z,54.19
2018-02-27T18:24:35.556Z,55.19
2018-02-27T18:27:03.026Z,54.92
2018-02-27T18:29:30.542Z,52.35
2018-02-27T18:31:58.072Z,54.07
2018-02-27T18:34:25.479Z,55.38
2018-02-27T18:36:52.888Z,55.50
2018-02-27T18:39:20.292Z,53.98
2018-02-27T18:41:47.704Z,53.33
2018-02-27T18:44:15.132Z,56.81
2018-02-27T18:46:42.538Z,54.74
2018-02-27T18:49:09.945Z,53.61
2018-02-27T18:51:37.360Z,56.52
2018-02-27T18:54:04.770Z,53.65
2018-02-27T18:56:32.649Z,55.05
2018-02-27T18:59:00.069Z,52.79
2018-02-27T19:01:27.486Z,55.63
2018-02-27T19:03:54.908Z,58.20
2018-02-27T19:06:22.327Z,52.80
2018-02-27T19:08:49.746Z,54.27
2018-02-27T19:11:17.166Z,54.30
2018-02-27T19:13:44.569Z,52.52
2018-02-27T19:16:11.989Z,52.02
2018-02-27T19:18:40.320Z,53.28
2018-02-27T19:21:07.742Z,53.78
2018-02-27T19:23:35.154Z,55.47
2018-02-27T19:26:03.905Z,53.61
2018-02-27T19:28:32.041Z,54.85
2018-02-27T19:30:59.458Z,56.27
2018-02-27T19:33:26.870Z,53.09
2018-02-27T19:35:54.284Z,54.04
2018-02-27T19:38:21.695Z,54.25
2018-02-27T19:40:49.113Z,53.88
2018-02-27T19:43:16.521Z,56.45
2018-02-27T19:45:44.182Z,53.50
2018-02-27T19:48:11.596Z,52.48
2018-02-27T19:50:39.017Z,52.33
2018-02-27T19:53:06.422Z,53.05
2018-02-27T19:55:34.702Z,52.06
2018-02-27T19:58:02.117Z,52.02
2018-02-27T20:00:29.854Z,53.64
2018-02-27T20:02:57.263Z,54.99
2018-02-27T20:05:24.677Z,54.93
2018-02-27T20:07:52.088Z,55.15
2018-02-27T20:10:19.500Z,55.45
2018-02-27T20:12:46.928Z,55.40
2018-02-27T20:15:14.332Z,55.58
2018-02-27T20:17:47.277Z,55.64
2018-02-27T20:20:14.767Z,55.41
2018-02-27T20:22:47.925Z,55.91
2018-02-27T20:25:15.337Z,56.15
2018-02-27T20:27:42.757Z,56.79
2018-02-27T20:30:10.171Z,56.58
2018-02-27T20:32:37.597Z,56.64
2018-02-27T20:35:05.014Z,56.49
2018-02-27T20:37:32.438Z,56.19
2018-02-27T20:39:59.847Z,56.39
2018-02-27T20:42:27.270Z,56.16
2018-02-27T20:44:54.676Z,56.24
2018-02-27T20:47:22.133Z,56.12
2018-02-27T20:49:49.554Z,56.26
2018-02-27T20:52:16.974Z,56.43
2018-02-27T20:54:44.428Z,56.25
2018-02-27T20:57:11.827Z,56.33
2018-02-27T20:59:39.555Z,59.51
2018-02-27T21:02:07.129Z,61.01
2018-02-27T21:04:34.528Z,61.35
2018-02-27T21:07:01.947Z,60.64
2018-02-27T21:09:29.357Z,60.68
2018-02-27T21:11:56.775Z,60.22
2018-02-27T21:14:24.180Z,64.12
2018-02-27T21:16:51.602Z,63.79
2018-02-27T21:19:19.017Z,65.56
2018-02-27T21:21:46.453Z,60.33
2018-02-27T21:24:13.864Z,63.12
2018-02-27T21:26:41.273Z,66.04
2018-02-27T21:29:08.694Z,58.90
2018-02-27T21:31:36.106Z,57.55
2018-02-27T21:34:03.527Z,57.27
2018-02-27T21:36:30.939Z,57.73
2018-02-27T21:38:58.376Z,58.26
2018-02-27T21:41:25.781Z,58.30
2018-02-27T21:43:53.216Z,62.83
2018-02-27T21:46:20.630Z,63.71
2018-02-27T21:48:48.054Z,67.16
2018-02-27T21:51:15.461Z,62.58
2018-02-27T21:53:42.881Z,60.94
2018-02-27T21:56:10.348Z,63.14
2018-02-27T21:58:37.765Z,65.26
2018-02-27T22:02:40.610Z,64.27
2018-02-27T22:05:07.986Z,65.45
2018-02-27T22:07:35.412Z,66.09
2018-02-27T22:10:02.842Z,67.61
2018-02-27T22:12:30.296Z,68.22
2018-02-27T22:14:57.701Z,68.11
2018-02-27T22:17:25.184Z,67.41
2018-02-27T22:19:52.606Z,67.16
2018-02-27T22:22:20.046Z,66.57
2018-02-27T22:24:47.508Z,66.31
2018-02-27T22:27:14.912Z,67.79
2018-02-27T22:29:42.331Z,67.83
2018-02-27T22:32:09.751Z,67.29
2018-02-27T22:34:37.210Z,66.74
2018-02-27T22:37:04.701Z,68.33
2018-02-27T22:39:32.094Z,68.05
2018-02-27T22:41:59.516Z,69.86
2018-02-27T22:44:26.963Z,71.59
2018-02-27T22:46:54.377Z,70.50
2018-02-27T22:49:21.833Z,69.97
2018-02-27T22:51:49.258Z,67.70
2018-02-27T22:54:16.678Z,67.66
2018-02-27T22:56:44.079Z,66.98
2018-02-27T22:59:12.215Z,67.29
2018-02-27T23:01:39.633Z,67.20
2018-02-27T23:04:07.054Z,66.84
2018-02-27T23:06:34.530Z,67.46
2018-02-27T23:09:01.955Z,67.81
2018-02-27T23:11:29.400Z,67.22
2018-02-27T23:13:56.833Z,66.43
2018-02-27T23:16:24.286Z,67.43
2018-02-27T23:18:51.712Z,67.34
2018-02-27T23:21:19.178Z,68.10
2018-02-27T23:23:48.279Z,68.12
2018-02-27T23:26:17.474Z,68.50
2018-02-27T23:28:45.145Z,68.60
2018-02-27T23:31:13.981Z,68.69
2018-02-27T23:33:42.636Z,68.43
2018-02-27T23:36:10.100Z,68.68
2018-02-27T23:38:37.534Z,68.56
2018-02-27T23:41:05.001Z,68.60
2018-02-27T23:43:32.378Z,68.86
2018-02-27T23:46:00.293Z,69.39
2018-02-27T23:48:27.729Z,68.75
2018-02-27T23:50:55.158Z,68.20
2018-02-27T23:53:22.584Z,71.31
2018-02-27T23:55:50.014Z,70.64
2018-02-27T23:58:17.463Z,71.09
